createdAt,value
2022-10-29T00:00:55.623Z,8.31
2022-10-29T00:03:24.850Z,8.31
2022-10-29T00:05:57.388Z,8.31
2022-10-29T00:08:25.891Z,8.30
2022-10-29T00:10:54.054Z,8.29
2022-10-29T00:13:22.186Z,8.30
2022-10-29T00:15:50.282Z,8.31
2022-10-29T00:18:19.657Z,8.30
2022-10-29T00:20:48.499Z,8.30
2022-10-29T00:23:16.754Z,8.27
2022-10-29T00:25:44.863Z,8.26
2022-10-29T00:28:12.886Z,8.26
2022-10-29T00:30:40.896Z,8.24
2022-10-29T00:33:09.016Z,8.23
2022-10-29T00:35:38.532Z,8.21
2022-10-29T00:38:06.506Z,8.18
2022-10-29T00:40:37.819Z,8.14
2022-10-29T00:43:15.796Z,8.14
2022-10-29T00:45:49.942Z,8.16
2022-10-29T00:48:18.273Z,8.16
2022-10-29T00:50:50.090Z,8.14
2022-10-29T00:53:21.602Z,8.14
2022-10-29T00:55:49.626Z,8.10
2022-10-29T00:58:17.834Z,8.07
2022-10-29T01:00:46.250Z,8.03
2022-10-29T01:03:14.581Z,7.99
2022-10-29T01:05:44.394Z,7.97
2022-10-29T01:08:15.254Z,7.97
2022-10-29T01:10:57.718Z,7.94
2022-10-29T01:13:42.604Z,7.95
2022-10-29T01:16:21.097Z,7.94
2022-10-29T01:18:54.528Z,7.95
2022-10-29T01:21:44.805Z,7.94
2022-10-29T01:24:48.191Z,7.95
2022-10-29T01:27:41.049Z,7.94
2022-10-29T01:30:18.089Z,7.96
2022-10-29T01:33:01.902Z,7.96
2022-10-29T01:35:38.185Z,7.88
2022-10-29T01:38:15.781Z,7.84
2022-10-29T01:40:50.957Z,7.78
2022-10-29T01:43:23.924Z,7.77
2022-10-29T01:45:57.481Z,7.72
2022-10-29T01:48:33.236Z,7.70
2022-10-29T01:51:06.024Z,7.71
2022-10-29T01:53:37.508Z,7.66
2022-10-29T01:56:05.805Z,7.61
2022-10-29T01:58:36.500Z,7.56
2022-10-29T02:01:14.529Z,7.54
2022-10-29T02:03:53.875Z,7.50
2022-10-29T02:06:33.909Z,7.47
2022-10-29T02:09:10.301Z,7.47
2022-10-29T02:11:47.560Z,7.45
2022-10-29T02:14:21.849Z,7.41
2022-10-29T02:16:50.650Z,7.38
2022-10-29T02:19:20.238Z,7.38
2022-10-29T02:21:48.328Z,7.39
2022-10-29T02:24:16.395Z,7.40
2022-10-29T02:26:44.407Z,7.42
2022-10-29T02:29:12.448Z,7.44
2022-10-29T02:31:40.471Z,7.44
2022-10-29T02:34:08.570Z,7.46
2022-10-29T02:36:38.180Z,7.44
2022-10-29T02:39:06.318Z,7.42
2022-10-29T02:41:34.340Z,7.38
2022-10-29T02:44:02.312Z,7.35
2022-10-29T02:46:30.401Z,7.28
2022-10-29T02:48:58.500Z,7.26
2022-10-29T02:51:26.456Z,7.28
2022-10-29T02:53:55.884Z,7.29
2022-10-29T02:56:23.861Z,7.34
2022-10-29T02:58:51.881Z,7.42
2022-10-29T03:01:20.048Z,7.47
2022-10-29T03:03:48.082Z,7.55
2022-10-29T03:06:16.742Z,7.60
2022-10-29T03:08:45.362Z,7.68
2022-10-29T03:11:15.381Z,7.78
2022-10-29T03:13:43.408Z,7.84
2022-10-29T03:16:11.457Z,7.92
2022-10-29T03:18:39.495Z,7.99
2022-10-29T03:21:07.420Z,8.06
2022-10-29T03:23:35.412Z,8.13
2022-10-29T03:26:03.565Z,8.19
2022-10-29T03:28:33.001Z,8.22
2022-10-29T03:31:01.057Z,8.25
2022-10-29T03:33:29.019Z,8.29
2022-10-29T03:35:58.678Z,8.34
2022-10-29T03:38:27.062Z,8.39
2022-10-29T03:40:55.108Z,8.44
2022-10-29T03:43:23.743Z,8.51
2022-10-29T03:45:53.751Z,8.57
2022-10-29T03:48:21.949Z,8.63
2022-10-29T03:50:56.568Z,8.70
2022-10-29T03:53:25.349Z,8.76
2022-10-29T03:55:53.775Z,8.80
2022-10-29T03:58:22.572Z,8.80
2022-10-29T04:01:00.105Z,8.79
2022-10-29T04:03:30.488Z,8.83
2022-10-29T04:05:59.509Z,8.77
2022-10-29T04:08:27.571Z,8.71
2022-10-29T04:10:55.670Z,8.67
2022-10-29T04:13:23.701Z,8.64
2022-10-29T04:15:55.387Z,8.65
2022-10-29T04:18:25.273Z,8.68
2022-10-29T04:29:18.524Z,8.83
2022-10-29T04:31:46.509Z,8.82
2022-10-29T04:34:15.847Z,8.80
2022-10-29T04:36:43.922Z,8.85
2022-10-29T04:39:11.932Z,8.87
2022-10-29T04:41:39.913Z,8.91
2022-10-29T04:44:07.977Z,8.97
2022-10-29T04:46:36.115Z,9.01
2022-10-29T04:49:04.310Z,9.02
2022-10-29T04:51:33.728Z,9.10
2022-10-29T04:54:01.894Z,9.16
2022-10-29T04:56:30.829Z,9.22
2022-10-29T04:58:58.825Z,9.27
2022-10-29T05:01:27.129Z,9.32
2022-10-29T05:03:58.932Z,9.36
2022-10-29T05:06:28.545Z,9.40
2022-10-29T05:08:57.894Z,9.40
2022-10-29T05:11:26.164Z,9.42
2022-10-29T05:13:54.644Z,9.42
2022-10-29T05:16:22.658Z,9.37
2022-10-29T05:18:50.731Z,9.37
2022-10-29T05:21:18.825Z,9.40
2022-10-29T05:23:46.827Z,9.42
2022-10-29T05:26:16.273Z,9.44
2022-10-29T05:28:44.274Z,9.46
2022-10-29T05:31:12.350Z,9.43
2022-10-29T05:33:40.386Z,9.40
2022-10-29T05:36:08.922Z,9.36
2022-10-29T05:38:37.195Z,9.29
2022-10-29T05:41:05.331Z,9.29
2022-10-29T05:43:34.884Z,9.30
2022-10-29T05:46:04.669Z,9.32
2022-10-29T05:48:32.892Z,9.33
2022-10-29T05:51:00.992Z,9.39
2022-10-29T05:53:29.043Z,9.41
2022-10-29T05:55:57.410Z,9.41
2022-10-29T05:58:25.537Z,9.43
2022-10-29T06:00:54.943Z,9.47
2022-10-29T06:03:24.060Z,9.52
2022-10-29T06:05:52.411Z,9.60
2022-10-29T06:08:20.609Z,9.61
2022-10-29T06:10:48.733Z,9.61
2022-10-29T06:13:19.085Z,9.63
2022-10-29T06:15:47.921Z,9.73
2022-10-29T06:18:17.589Z,9.79
2022-10-29T06:20:45.755Z,9.80
2022-10-29T06:23:13.812Z,9.86
2022-10-29T06:25:41.845Z,9.89
2022-10-29T06:28:12.170Z,9.98
2022-10-29T06:30:40.230Z,10.02
2022-10-29T06:33:08.260Z,10.01
2022-10-29T06:35:37.639Z,10.02
2022-10-29T06:38:10.838Z,10.06
2022-10-29T06:40:40.598Z,10.09
2022-10-29T06:43:11.064Z,10.15
2022-10-29T06:45:39.122Z,10.22
2022-10-29T06:48:07.935Z,10.22
2022-10-29T06:50:37.429Z,10.24
2022-10-29T06:53:07.603Z,10.33
2022-10-29T06:55:36.037Z,10.47
2022-10-29T06:58:06.191Z,10.61
2022-10-29T07:00:35.372Z,10.71
2022-10-29T07:03:05.128Z,10.85
2022-10-29T07:05:33.854Z,10.98
2022-10-29T07:08:03.709Z,11.11
2022-10-29T07:10:33.813Z,11.27
2022-10-29T07:13:02.477Z,11.41
2022-10-29T07:15:31.260Z,11.52
2022-10-29T07:18:00.894Z,11.64
2022-10-29T07:20:30.200Z,11.77
2022-10-29T07:22:59.473Z,11.86
2022-10-29T07:25:29.234Z,11.85
2022-10-29T07:28:03.594Z,11.83
2022-10-29T07:30:31.823Z,11.83
2022-10-29T07:32:59.891Z,11.81
2022-10-29T07:35:27.850Z,11.88
2022-10-29T07:38:03.802Z,11.96
2022-10-29T07:40:38.547Z,12.05
2022-10-29T07:43:06.537Z,12.12
2022-10-29T07:45:34.774Z,12.10
2022-10-29T07:48:06.827Z,12.18
2022-10-29T07:50:35.255Z,12.20
2022-10-29T07:53:04.583Z,12.31
2022-10-29T07:55:32.663Z,12.42
2022-10-29T07:58:03.776Z,12.48
2022-10-29T08:00:33.002Z,12.50
2022-10-29T08:03:01.016Z,12.58
2022-10-29T08:05:30.128Z,12.69
2022-10-29T08:07:59.394Z,12.71
2022-10-29T08:10:28.401Z,12.73
2022-10-29T08:12:58.519Z,12.81
2022-10-29T08:15:28.986Z,12.83
2022-10-29T08:17:57.737Z,12.93
2022-10-29T08:20:28.834Z,12.85
2022-10-29T08:22:57.148Z,12.92
2022-10-29T08:25:26.187Z,12.91
2022-10-29T08:28:01.495Z,13.04
2022-10-29T08:30:31.651Z,13.15
2022-10-29T08:33:00.540Z,13.26
2022-10-29T08:35:29.351Z,13.28
2022-10-29T08:37:57.811Z,13.39
2022-10-29T08:40:32.178Z,13.56
2022-10-29T08:43:26.933Z,13.73
2022-10-29T08:45:57.407Z,13.85
2022-10-29T08:48:46.541Z,14.00
2022-10-29T08:51:19.645Z,14.19
2022-10-29T08:53:58.805Z,14.32
2022-10-29T08:56:40.741Z,14.34
2022-10-29T08:59:14.808Z,14.35
2022-10-29T09:01:44.832Z,14.47
2022-10-29T09:04:24.961Z,14.60
2022-10-29T09:07:28.722Z,14.72
2022-10-29T09:10:03.549Z,14.81
2022-10-29T09:12:50.925Z,14.89
2022-10-29T09:15:41.218Z,15.00
2022-10-29T09:18:32.687Z,15.01
2022-10-29T09:21:09.388Z,14.93
2022-10-29T09:24:08.851Z,14.79
2022-10-29T09:26:45.142Z,14.64
2022-10-29T09:29:44.385Z,14.46
2022-10-29T09:32:17.303Z,14.44
2022-10-29T09:34:50.814Z,14.48
2022-10-29T09:37:23.081Z,14.52
2022-10-29T09:39:51.283Z,14.52
2022-10-29T09:42:24.285Z,14.54
2022-10-29T09:44:55.862Z,14.67
2022-10-29T09:47:38.135Z,14.85
2022-10-29T09:50:17.530Z,15.00
2022-10-29T09:52:48.254Z,15.12
2022-10-29T09:55:21.566Z,15.20
2022-10-29T09:57:50.098Z,15.30
2022-10-29T10:00:22.155Z,15.44
2022-10-29T10:02:56.052Z,15.64
2022-10-29T10:05:28.876Z,15.85
2022-10-29T10:08:09.164Z,15.99
2022-10-29T10:10:40.651Z,16.13
2022-10-29T10:13:17.200Z,16.24
2022-10-29T10:15:53.412Z,16.34
2022-10-29T10:18:23.919Z,16.50
2022-10-29T10:21:04.769Z,16.67
2022-10-29T10:23:44.565Z,16.86
2022-10-29T10:26:33.467Z,17.03
2022-10-29T10:29:13.181Z,17.22
2022-10-29T10:31:41.857Z,17.41
2022-10-29T10:34:15.312Z,17.57
2022-10-29T10:36:49.789Z,17.73
2022-10-29T10:39:24.500Z,17.84
2022-10-29T10:41:53.352Z,17.88
2022-10-29T10:44:23.462Z,17.98
2022-10-29T10:46:55.148Z,17.97
2022-10-29T10:49:31.467Z,18.03
2022-10-29T10:52:03.764Z,18.18
2022-10-29T10:54:37.158Z,18.36
2022-10-29T10:57:19.518Z,18.58
2022-10-29T10:59:55.969Z,18.85
2022-10-29T11:02:30.888Z,19.05
2022-10-29T11:05:05.161Z,19.22
2022-10-29T11:07:43.341Z,19.26
2022-10-29T11:10:15.276Z,19.28
2022-10-29T11:12:47.661Z,19.41
2022-10-29T11:15:19.633Z,19.51
2022-10-29T11:17:54.820Z,19.64
2022-10-29T11:20:26.993Z,19.72
2022-10-29T11:23:09.892Z,19.75
2022-10-29T11:25:42.761Z,19.74
2022-10-29T11:28:30.905Z,19.79
2022-10-29T11:31:08.816Z,19.83
2022-10-29T11:33:47.343Z,19.91
2022-10-29T11:36:20.741Z,20.00
2022-10-29T11:38:55.089Z,20.09
2022-10-29T11:41:33.407Z,20.13
2022-10-29T11:44:01.661Z,20.24
2022-10-29T11:46:44.745Z,20.32
2022-10-29T11:49:25.143Z,20.42
2022-10-29T11:52:06.602Z,20.53
2022-10-29T11:54:54.441Z,20.62
2022-10-29T11:57:29.093Z,20.71
2022-10-29T12:00:17.015Z,20.78
2022-10-29T12:03:17.935Z,20.92
2022-10-29T12:05:53.319Z,21.02
2022-10-29T12:08:35.087Z,21.12
2022-10-29T12:11:12.415Z,21.27
2022-10-29T12:13:55.015Z,21.38
2022-10-29T12:16:36.445Z,21.53
2022-10-29T12:19:15.970Z,21.70
2022-10-29T12:21:51.940Z,21.91
2022-10-29T12:24:51.100Z,22.09
2022-10-29T12:27:24.930Z,22.53
2022-10-29T12:30:00.071Z,23.38
2022-10-29T12:32:36.895Z,25.36
2022-10-29T12:35:18.535Z,28.18
2022-10-29T12:37:56.795Z,30.83
2022-10-29T12:40:29.511Z,32.78
2022-10-29T12:43:05.440Z,33.80
2022-10-29T12:45:48.091Z,34.03
2022-10-29T12:48:38.597Z,34.73
2022-10-29T12:51:17.159Z,35.24
2022-10-29T12:54:01.240Z,34.94
2022-10-29T12:56:30.780Z,34.34
2022-10-29T12:59:29.950Z,34.43
2022-10-29T13:02:18.211Z,34.96
2022-10-29T13:05:19.693Z,35.81
2022-10-29T13:08:27.886Z,36.55
2022-10-29T13:10:57.610Z,36.57
2022-10-29T13:14:01.334Z,35.42
2022-10-29T13:16:31.733Z,35.09
2022-10-29T13:19:15.917Z,35.83
2022-10-29T13:22:28.189Z,36.94
2022-10-29T13:25:30.030Z,37.76
2022-10-29T13:27:58.320Z,37.72
2022-10-29T13:30:29.207Z,37.87
2022-10-29T13:32:57.783Z,38.19
2022-10-29T13:35:42.499Z,38.16
2022-10-29T13:38:17.401Z,38.01
2022-10-29T13:41:11.941Z,37.95
2022-10-29T13:43:40.115Z,37.80
2022-10-29T13:46:30.738Z,37.68
2022-10-29T13:49:01.666Z,37.44
2022-10-29T13:51:36.202Z,37.07
2022-10-29T13:54:09.768Z,36.27
2022-10-29T13:56:44.676Z,35.34
2022-10-29T13:59:22.302Z,34.10
2022-10-29T14:02:02.452Z,32.63
2022-10-29T14:04:38.643Z,31.46
2022-10-29T14:07:15.588Z,30.72
2022-10-29T14:09:47.567Z,29.70
2022-10-29T14:12:20.233Z,28.77
2022-10-29T14:14:57.535Z,27.88
2022-10-29T14:17:26.988Z,27.02
2022-10-29T14:19:55.143Z,26.34
2022-10-29T14:22:29.963Z,25.75
2022-10-29T14:24:57.955Z,25.27
2022-10-29T14:27:25.900Z,24.87
2022-10-29T14:29:55.619Z,24.50
2022-10-29T14:32:24.030Z,24.17
2022-10-29T14:34:54.603Z,23.84
2022-10-29T14:37:29.598Z,23.59
2022-10-29T14:40:01.122Z,23.67
2022-10-29T14:42:32.939Z,23.68
2022-10-29T14:45:03.300Z,24.04
2022-10-29T14:47:34.627Z,24.51
2022-10-29T14:50:07.291Z,24.77
2022-10-29T14:52:39.761Z,24.97
2022-10-29T14:55:09.923Z,25.03
2022-10-29T14:57:42.780Z,24.74
2022-10-29T15:00:24.811Z,24.46
2022-10-29T15:02:55.166Z,24.11
2022-10-29T15:05:27.634Z,23.60
2022-10-29T15:08:06.793Z,22.92
2022-10-29T15:10:46.318Z,22.29
2022-10-29T15:13:30.599Z,21.73
2022-10-29T15:16:02.091Z,21.20
2022-10-29T15:18:31.960Z,20.66
2022-10-29T15:21:03.556Z,20.10
2022-10-29T15:23:35.461Z,19.63
2022-10-29T15:26:05.327Z,19.24
2022-10-29T15:28:40.074Z,18.87
2022-10-29T15:31:08.708Z,18.59
2022-10-29T15:33:38.362Z,18.35
2022-10-29T15:36:08.627Z,18.07
2022-10-29T15:39:10.637Z,17.76
2022-10-29T15:41:46.070Z,17.55
2022-10-29T15:44:40.526Z,17.21
2022-10-29T15:47:28.048Z,16.97
2022-10-29T15:49:56.468Z,16.78
2022-10-29T15:52:28.925Z,16.60
2022-10-29T15:54:56.937Z,16.46
2022-10-29T15:57:24.930Z,16.35
2022-10-29T15:59:57.299Z,16.26
2022-10-29T16:02:26.920Z,16.14
2022-10-29T16:04:55.002Z,16.01
2022-10-29T16:07:23.045Z,15.84
2022-10-29T16:09:55.703Z,15.68
2022-10-29T16:12:23.685Z,15.51
2022-10-29T16:14:51.730Z,15.34
2022-10-29T16:17:22.080Z,15.22
2022-10-29T16:19:50.015Z,15.07
2022-10-29T16:22:22.208Z,14.94
2022-10-29T16:24:50.244Z,14.84
2022-10-29T16:27:19.704Z,14.75
2022-10-29T16:29:49.717Z,14.70
2022-10-29T16:32:19.914Z,14.65
2022-10-29T16:34:48.235Z,14.59
2022-10-29T16:37:17.486Z,14.53
2022-10-29T16:39:45.759Z,14.49
2022-10-29T16:42:29.870Z,14.31
2022-10-29T16:44:58.041Z,14.15
2022-10-29T16:47:26.111Z,14.03
2022-10-29T16:49:54.286Z,13.93
2022-10-29T16:52:25.253Z,13.87
2022-10-29T16:54:55.606Z,13.85
2022-10-29T16:57:23.863Z,13.83
2022-10-29T16:59:53.277Z,13.80
2022-10-29T17:02:21.265Z,13.77
2022-10-29T17:04:49.242Z,13.74
2022-10-29T17:07:17.846Z,13.73
2022-10-29T17:09:45.831Z,13.70
2022-10-29T17:12:13.917Z,13.63
2022-10-29T17:14:41.971Z,13.59
2022-10-29T17:17:11.348Z,13.50
2022-10-29T17:19:39.281Z,13.46
2022-10-29T17:22:10.665Z,13.45
2022-10-29T17:24:38.658Z,13.44
2022-10-29T17:27:06.690Z,13.43
2022-10-29T17:29:36.440Z,13.43
2022-10-29T17:32:05.055Z,13.40
2022-10-29T17:34:35.051Z,13.34
2022-10-29T17:37:03.005Z,13.28
2022-10-29T17:39:31.126Z,13.21
2022-10-29T17:41:59.259Z,13.09
2022-10-29T17:44:27.652Z,12.99
2022-10-29T17:46:56.422Z,12.89
2022-10-29T17:49:25.853Z,12.81
2022-10-29T17:51:55.320Z,12.75
2022-10-29T17:54:23.436Z,12.72
2022-10-29T17:56:52.277Z,12.63
2022-10-29T17:59:20.591Z,12.55
2022-10-29T18:01:48.959Z,12.51
2022-10-29T18:04:17.150Z,12.43
2022-10-29T18:06:45.228Z,12.30
2022-10-29T18:09:17.177Z,12.22
2022-10-29T18:11:49.288Z,12.23
2022-10-29T18:14:17.535Z,12.26
2022-10-29T18:16:45.827Z,12.23
2022-10-29T18:19:13.892Z,12.13
2022-10-29T18:21:41.922Z,12.06
2022-10-29T18:24:10.598Z,12.00
2022-10-29T18:26:40.106Z,11.91
2022-10-29T18:29:10.304Z,11.89
2022-10-29T18:31:40.270Z,11.87
2022-10-29T18:34:09.170Z,11.86
2022-10-29T18:36:37.252Z,11.86
2022-10-29T18:39:06.758Z,11.86
2022-10-29T18:41:35.845Z,11.87
2022-10-29T18:44:05.750Z,11.80
2022-10-29T18:46:34.017Z,11.77
2022-10-29T18:49:02.222Z,11.74
2022-10-29T18:51:32.025Z,11.75
2022-10-29T18:54:00.810Z,11.76
2022-10-29T18:56:30.625Z,11.77
2022-10-29T18:58:59.952Z,11.81
2022-10-29T19:01:32.035Z,11.82
2022-10-29T19:04:01.926Z,11.80
2022-10-29T19:06:31.453Z,11.77
2022-10-29T19:09:01.819Z,11.68
2022-10-29T19:11:30.714Z,11.58
2022-10-29T19:14:00.388Z,11.49
2022-10-29T19:16:31.631Z,11.40
2022-10-29T19:19:01.308Z,11.33
2022-10-29T19:21:29.469Z,11.30
2022-10-29T19:23:59.451Z,11.30
2022-10-29T19:26:29.218Z,11.30
2022-10-29T19:28:57.856Z,11.29
2022-10-29T19:31:27.754Z,11.25
2022-10-29T19:33:58.859Z,11.21
2022-10-29T19:36:28.347Z,11.20
2022-10-29T19:38:57.061Z,11.18
2022-10-29T19:41:25.553Z,11.16
2022-10-29T19:43:53.831Z,11.17
2022-10-29T19:46:24.250Z,11.18
2022-10-29T19:48:53.867Z,11.19
2022-10-29T19:51:23.858Z,11.19
2022-10-29T19:53:52.495Z,11.18
2022-10-29T19:56:21.980Z,11.13
2022-10-29T19:58:50.180Z,11.10
2022-10-29T20:01:19.868Z,11.07
2022-10-29T20:03:48.677Z,11.04
2022-10-29T20:06:18.278Z,10.99
2022-10-29T20:08:47.659Z,10.95
2022-10-29T20:11:15.638Z,10.91
2022-10-29T20:13:43.863Z,10.86
2022-10-29T20:16:14.594Z,10.84
2022-10-29T20:18:42.498Z,10.80
2022-10-29T20:21:10.521Z,10.74
2022-10-29T20:23:38.712Z,10.69
2022-10-29T20:26:08.702Z,10.66
2022-10-29T20:28:37.017Z,10.64
2022-10-29T20:31:12.807Z,10.59
2022-10-29T20:33:40.786Z,10.55
2022-10-29T20:36:09.457Z,10.54
2022-10-29T20:38:37.687Z,10.52
2022-10-29T20:41:07.096Z,10.45
2022-10-29T20:43:35.136Z,10.39
2022-10-29T20:46:04.205Z,10.39
2022-10-29T20:48:32.861Z,10.38
2022-10-29T20:51:00.945Z,10.38
2022-10-29T20:53:29.028Z,10.39
2022-10-29T20:55:57.136Z,10.37
2022-10-29T20:58:26.578Z,10.34
2022-10-29T21:00:54.946Z,10.34
2022-10-29T21:03:22.918Z,10.36
2022-10-29T21:05:50.832Z,10.33
2022-10-29T21:08:18.804Z,10.33
2022-10-29T21:10:46.808Z,10.32
2022-10-29T21:13:14.912Z,10.32
2022-10-29T21:15:44.401Z,10.33
2022-10-29T21:18:12.389Z,10.36
2022-10-29T21:20:40.377Z,10.37
2022-10-29T21:23:08.450Z,10.37
2022-10-29T21:25:36.483Z,10.37
2022-10-29T21:28:04.552Z,10.36
2022-10-29T21:30:32.602Z,10.40
2022-10-29T21:33:01.929Z,10.44
2022-10-29T21:35:29.895Z,10.51
2022-10-29T21:37:58.223Z,10.54
2022-10-29T21:40:26.585Z,10.54
2022-10-29T21:42:54.910Z,10.56
2022-10-29T21:45:23.216Z,10.51
2022-10-29T21:47:51.278Z,10.45
2022-10-29T21:50:20.665Z,10.37
2022-10-29T21:52:48.608Z,10.29
2022-10-29T21:55:16.621Z,10.22
2022-10-29T21:57:45.109Z,10.21
2022-10-29T22:00:15.520Z,10.19
2022-10-29T22:02:43.561Z,10.18
2022-10-29T22:05:11.853Z,10.18
2022-10-29T22:07:41.398Z,10.20
2022-10-29T22:10:09.923Z,10.22
2022-10-29T22:12:38.045Z,10.23
2022-10-29T22:15:07.244Z,10.23
2022-10-29T22:17:35.200Z,10.24
2022-10-29T22:20:03.142Z,10.24
2022-10-29T22:22:31.263Z,10.22
2022-10-29T22:25:00.578Z,10.18
2022-10-29T22:27:28.583Z,10.11
2022-10-29T22:29:56.540Z,10.02
2022-10-29T22:32:24.541Z,9.94
2022-10-29T22:34:52.567Z,9.87
2022-10-29T22:37:20.658Z,9.85
2022-10-29T22:39:48.724Z,9.86
2022-10-29T22:42:18.114Z,9.86
2022-10-29T22:44:46.121Z,9.87
2022-10-29T22:47:14.129Z,9.87
2022-10-29T22:49:42.181Z,9.80
2022-10-29T22:52:10.203Z,9.75
2022-10-29T22:54:38.248Z,9.72
2022-10-29T22:57:06.293Z,9.74
2022-10-29T22:59:35.594Z,9.77
2022-10-29T23:02:03.773Z,9.78
2022-10-29T23:04:31.910Z,9.79
2022-10-29T23:07:02.118Z,9.80
2022-10-29T23:09:30.374Z,9.82
2022-10-29T23:12:01.492Z,9.83
2022-10-29T23:14:29.480Z,9.85
2022-10-29T23:16:58.810Z,9.85
2022-10-29T23:19:26.942Z,9.89
2022-10-29T23:21:54.904Z,9.94
2022-10-29T23:24:22.881Z,9.94
2022-10-29T23:26:50.921Z,9.95
2022-10-29T23:29:19.009Z,9.93
2022-10-29T23:31:46.967Z,9.92
2022-10-29T23:34:16.618Z,9.88
2022-10-29T23:36:44.794Z,9.82
2022-10-29T23:39:13.141Z,9.79
2022-10-29T23:41:41.208Z,9.75
2022-10-29T23:44:09.215Z,9.72
2022-10-29T23:46:37.234Z,9.68
2022-10-29T23:49:05.276Z,9.63
2022-10-29T23:54:07.562Z,9.57
2022-10-29T23:56:35.537Z,9.56
2022-10-29T23:59:03.646Z,9.52
